Time;durP1;ratioP1;P1;durP2;ratioP2;P2;SDS_P1;SDS_P2;PMS_P1;PMS_P2;Temp;Humidity;BMP_temperature;BMP_pressure;BME280_temperature;BME280_humidity;BME280_pressure;Samples;Min_cycle;Max_cycle;Signal;HPM_P1;HPM_P2
2023/12/01 00:02:24;;;;;;;15.10;9.50;;;;;;;3.21;61.33;100111.59;107420;1251;99858;-61
2023/12/01 00:04:52;;;;;;;16.20;9.30;;;;;;;3.23;61.11;100114.85;107663;1251;112027;-60
2023/12/01 00:07:20;;;;;;;22.10;10.20;;;;;;;3.24;61.30;100100.08;107605;1251;108797;-61
2023/12/01 00:09:49;;;;;;;16.00;9.60;;;;;;;3.24;61.13;100102.52;107624;1253;107549;-61
2023/12/01 00:12:17;;;;;;;15.90;8.80;;;;;;;3.27;61.06;100089.55;107576;1253;99242;-60
2023/12/01 00:14:46;;;;;;;17.40;8.80;;;;;;;3.29;60.91;100075.20;107648;1253;99205;-62
2023/12/01 00:17:14;;;;;;;16.80;9.90;;;;;;;3.32;61.02;100072.01;107593;1253;113750;-64
2023/12/01 00:19:43;;;;;;;13.00;8.80;;;;;;;3.33;61.17;100072.30;107590;1252;109857;-62
2023/12/01 00:22:11;;;;;;;13.20;9.00;;;;;;;3.36;61.02;100076.91;107598;1253;108423;-62
2023/12/01 00:24:39;;;;;;;15.20;9.90;;;;;;;3.41;61.15;100081.16;107565;1251;99392;-61
2023/12/01 00:27:08;;;;;;;14.30;8.80;;;;;;;3.49;61.28;100063.21;107610;1253;99379;-61
2023/12/01 00:29:36;;;;;;;15.00;9.80;;;;;;;3.57;61.26;100078.60;107611;1252;112763;-63
2023/12/01 00:32:06;;;;;;;15.80;9.90;;;;;;;3.64;61.11;100077.59;107670;1253;109242;-62
2023/12/01 00:34:34;;;;;;;15.10;10.00;;;;;;;3.66;61.28;100046.76;107624;1253;107218;-61
2023/12/01 00:37:03;;;;;;;19.20;10.90;;;;;;;3.65;61.38;100056.98;107599;1253;99241;-62
2023/12/01 00:39:31;;;;;;;18.10;11.50;;;;;;;3.62;61.80;100057.02;107657;1252;99196;-60
2023/12/01 00:42:00;;;;;;;23.00;11.70;;;;;;;3.58;61.93;100054.28;107419;1253;113262;-61
2023/12/01 00:44:29;;;;;;;18.10;11.40;;;;;;;3.54;61.74;100065.91;107624;1251;108846;-60
2023/12/01 00:46:58;;;;;;;20.70;11.70;;;;;;;3.51;61.88;100055.98;107615;1253;107559;-63
2023/12/01 00:49:26;;;;;;;21.80;12.30;;;;;;;3.50;61.80;100060.54;107707;1251;99265;-61
2023/12/01 00:51:54;;;;;;;24.50;12.80;;;;;;;3.47;62.11;100063.72;107723;1250;99178;-62
2023/12/01 00:54:23;;;;;;;19.20;11.90;;;;;;;3.49;61.98;100054.40;107654;1251;113174;-61
2023/12/01 00:56:51;;;;;;;25.10;11.80;;;;;;;3.48;62.29;100037.43;107635;1251;109256;-61
2023/12/01 00:59:20;;;;;;;17.80;11.00;;;;;;;3.47;62.36;100007.02;107590;1251;108566;-61
2023/12/01 01:01:48;;;;;;;22.20;10.80;;;;;;;3.45;62.63;100012.80;107612;1255;99199;-61
2023/12/01 01:04:16;;;;;;;18.60;11.90;;;;;;;3.44;62.80;100005.23;107678;1251;99629;-61
2023/12/01 01:06:45;;;;;;;17.30;10.80;;;;;;;3.44;62.88;100013.88;107657;1251;113708;-60
2023/12/01 01:09:13;;;;;;;18.60;11.50;;;;;;;3.45;62.96;100024.64;107514;1253;109864;-61
2023/12/01 01:11:42;;;;;;;16.30;10.70;;;;;;;3.46;63.50;100021.77;107615;1251;108930;-61
2023/12/01 01:14:10;;;;;;;16.30;11.00;;;;;;;3.47;64.20;100006.30;107417;1258;99051;-63
2023/12/01 01:16:39;;;;;;;21.00;12.40;;;;;;;3.48;64.49;99997.50;107654;1251;99190;-63
2023/12/01 01:19:08;;;;;;;18.80;11.10;;;;;;;3.55;64.73;99987.29;107533;1252;113130;-61
2023/12/01 01:21:36;;;;;;;19.00;10.90;;;;;;;3.62;64.79;99991.06;107411;1253;108837;-61
2023/12/01 01:24:05;;;;;;;18.30;11.30;;;;;;;3.68;64.62;99997.02;107450;1254;107291;-62
2023/12/01 01:26:34;;;;;;;17.90;10.70;;;;;;;3.75;64.90;99993.80;107648;1251;99087;-62
2023/12/01 01:29:02;;;;;;;15.60;10.30;;;;;;;3.83;64.73;99988.09;107553;1256;99569;-61
2023/12/01 01:31:30;;;;;;;17.30;11.40;;;;;;;3.88;64.87;99988.65;107586;1253;112645;-61
2023/12/01 01:33:59;;;;;;;17.50;11.40;;;;;;;3.89;64.60;99990.14;107606;1253;109344;-61
2023/12/01 01:36:27;;;;;;;18.50;11.50;;;;;;;3.89;64.70;99988.37;107623;1251;107530;-62
2023/12/01 01:38:55;;;;;;;20.20;12.10;;;;;;;3.91;64.63;99975.80;107653;1251;99183;-62
2023/12/01 01:41:24;;;;;;;20.40;11.20;;;;;;;3.94;64.77;99969.39;107491;1251;99090;-60
2023/12/01 01:43:53;;;;;;;16.90;11.40;;;;;;;3.97;64.74;99970.23;107608;1253;113199;-61
2023/12/01 01:46:21;;;;;;;17.30;11.40;;;;;;;3.97;64.64;99970.92;107427;1253;109089;-61
2023/12/01 01:48:50;;;;;;;21.80;11.90;;;;;;;3.95;64.49;99964.92;107473;1251;107790;-62
2023/12/01 01:51:19;;;;;;;19.60;12.40;;;;;;;3.91;64.45;99965.35;107645;1253;99172;-61
2023/12/01 01:53:48;;;;;;;19.50;12.90;;;;;;;3.89;64.36;99959.46;107631;1252;99065;-61
2023/12/01 01:56:16;;;;;;;22.00;13.10;;;;;;;3.87;64.31;99956.63;107617;1253;113513;-61
2023/12/01 01:58:45;;;;;;;20.90;12.40;;;;;;;3.83;64.15;99952.45;107574;1250;109699;-64
2023/12/01 02:01:14;;;;;;;19.60;12.20;;;;;;;3.73;63.87;99946.56;107694;1250;108646;-60
2023/12/01 02:03:43;;;;;;;20.90;12.50;;;;;;;3.72;64.19;99944.20;107530;1253;99285;-60
2023/12/01 02:06:12;;;;;;;19.90;13.20;;;;;;;3.68;64.25;99951.05;107612;1251;99259;-61
2023/12/01 02:08:44;;;;;;;19.30;12.40;;;;;;;3.62;64.39;99935.15;107655;1251;113339;-62
2023/12/01 02:11:13;;;;;;;20.50;13.10;;;;;;;3.54;65.07;99927.90;107624;1251;110510;-62
2023/12/01 02:13:43;;;;;;;24.80;13.50;;;;;;;3.49;65.09;99925.86;107422;1256;108123;-64
2023/12/01 02:16:12;;;;;;;20.20;13.30;;;;;;;3.45;65.16;99925.23;107648;1252;99187;-61
2023/12/01 02:18:40;;;;;;;20.30;12.90;;;;;;;3.43;65.30;99924.81;107657;1251;99068;-61
2023/12/01 02:21:09;;;;;;;23.10;12.10;;;;;;;3.42;65.29;99923.67;107477;1253;113286;-61
2023/12/01 02:23:38;;;;;;;22.50;12.70;;;;;;;3.40;65.32;99920.25;107651;1251;108501;-60
2023/12/01 02:26:09;;;;;;;23.40;13.30;;;;;;;3.40;65.20;99924.55;107621;1251;108995;-60
2023/12/01 02:28:38;;;;;;;22.50;13.20;;;;;;;3.39;65.55;99912.91;107649;1251;99180;-61
2023/12/01 02:31:06;;;;;;;21.50;12.70;;;;;;;3.39;65.04;99904.73;107648;1250;99061;-59
2023/12/01 02:33:36;;;;;;;20.30;12.90;;;;;;;3.38;65.07;99902.33;107716;1250;113533;-61
2023/12/01 02:36:06;;;;;;;18.00;12.20;;;;;;;3.38;65.25;99900.21;107613;1251;108757;-61
2023/12/01 02:38:35;;;;;;;23.50;13.20;;;;;;;3.36;65.67;99882.96;107448;1251;108567;-61
2023/12/01 02:41:03;;;;;;;20.40;12.00;;;;;;;3.35;65.63;99878.77;107664;1251;99262;-62
2023/12/01 02:43:32;;;;;;;19.80;12.20;;;;;;;3.34;65.43;99870.17;107729;1251;99054;-61
2023/12/01 02:46:01;;;;;;;19.30;12.40;;;;;;;3.35;65.53;99865.33;107654;1251;113193;-62
2023/12/01 02:48:30;;;;;;;20.30;12.30;;;;;;;3.36;65.78;99854.66;107554;1253;107531;-61
2023/12/01 02:50:58;;;;;;;19.90;12.90;;;;;;;3.36;65.86;99866.47;107470;1251;108099;-63
2023/12/01 02:53:27;;;;;;;21.00;12.30;;;;;;;3.36;65.82;99877.30;107445;1251;99231;-61
2023/12/01 02:55:56;;;;;;;18.80;11.90;;;;;;;3.36;65.93;99884.77;107605;1252;99125;-61
2023/12/01 02:58:24;;;;;;;19.10;11.80;;;;;;;3.37;65.89;99885.23;107651;1253;112672;-60
2023/12/01 03:00:53;;;;;;;15.90;10.40;;;;;;;3.39;65.97;99874.77;107579;1253;108541;-61
2023/12/01 03:03:21;;;;;;;14.80;10.40;;;;;;;3.41;66.36;99861.84;107399;1253;107499;-61
2023/12/01 03:05:50;;;;;;;18.60;10.70;;;;;;;3.44;66.20;99868.52;107555;1251;99215;-62
2023/12/01 03:08:18;;;;;;;18.00;10.80;;;;;;;3.49;66.53;99869.27;107477;1250;99212;-62
2023/12/01 03:10:48;;;;;;;17.80;10.80;;;;;;;3.55;66.90;99864.60;107571;1251;112613;-62
2023/12/01 03:13:16;;;;;;;20.50;10.70;;;;;;;3.57;66.61;99866.59;107611;1251;109847;-63
2023/12/01 03:15:45;;;;;;;16.20;10.50;;;;;;;3.60;66.84;99867.05;107591;1253;108358;-62
2023/12/01 03:18:14;;;;;;;19.20;11.20;;;;;;;3.66;67.00;99854.75;107428;1252;99219;-60
2023/12/01 03:20:43;;;;;;;19.50;10.90;;;;;;;3.73;67.09;99846.93;107711;1250;99763;-61
2023/12/01 03:23:11;;;;;;;17.50;11.20;;;;;;;3.79;66.90;99847.44;107637;1251;113100;-61
2023/12/01 03:25:39;;;;;;;16.00;9.80;;;;;;;3.85;66.96;99840.88;107702;1251;109705;-60
2023/12/01 03:28:08;;;;;;;18.80;10.50;;;;;;;3.91;67.17;99830.85;107518;1251;108185;-61
2023/12/01 03:30:36;;;;;;;19.30;11.80;;;;;;;3.95;67.11;99833.98;107474;1253;100716;-61
2023/12/01 03:33:04;;;;;;;25.20;14.00;;;;;;;4.00;67.20;99834.59;107662;1252;99708;-61
2023/12/01 03:35:33;;;;;;;23.00;13.10;;;;;;;4.06;67.22;99829.03;107656;1255;113862;-60
2023/12/01 03:38:01;;;;;;;35.50;16.20;;;;;;;4.03;66.77;99824.46;107466;1253;109138;-61
2023/12/01 03:40:29;;;;;;;24.60;13.10;;;;;;;4.01;66.73;99820.20;107613;1251;108683;-61
2023/12/01 03:42:58;;;;;;;26.40;12.70;;;;;;;3.97;66.57;99806.85;107484;1251;99272;-60
2023/12/01 03:45:27;;;;;;;24.40;12.80;;;;;;;3.92;66.36;99818.77;107619;1251;99090;-60
2023/12/01 03:47:56;;;;;;;22.10;11.90;;;;;;;3.88;66.19;99819.91;107668;1253;113140;-61
2023/12/01 03:50:24;;;;;;;21.80;12.10;;;;;;;3.87;66.34;99821.21;107517;1252;109706;-62
2023/12/01 03:52:53;;;;;;;23.60;12.20;;;;;;;3.85;66.35;99820.33;107611;1255;109463;-63
2023/12/01 03:55:21;;;;;;;20.60;12.60;;;;;;;3.81;66.13;99822.04;107614;1251;99178;-62
2023/12/01 03:57:50;;;;;;;20.10;12.20;;;;;;;3.78;66.41;99827.61;107634;1251;99090;-60
2023/12/01 04:00:19;;;;;;;22.00;11.80;;;;;;;3.76;66.40;99820.14;107614;1252;113671;-60
2023/12/01 04:02:48;;;;;;;21.20;10.50;;;;;;;3.72;66.23;99824.70;107630;1251;109397;-61
2023/12/01 04:05:19;;;;;;;18.40;10.20;;;;;;;3.67;66.34;99820.41;107671;1251;107205;-61
2023/12/01 04:07:52;;;;;;;18.40;10.30;;;;;;;3.62;66.42;99803.58;107619;1252;99212;-61
2023/12/01 04:10:25;;;;;;;18.50;10.20;;;;;;;3.57;66.49;99798.50;107634;1253;99100;-62
2023/12/01 04:12:58;;;;;;;14.20;9.20;;;;;;;3.52;66.52;99794.23;107480;1257;112580;-64
2023/12/01 04:15:26;;;;;;;15.60;9.90;;;;;;;3.47;66.54;99799.19;107608;1251;108692;-62
2023/12/01 04:17:56;;;;;;;17.50;11.00;;;;;;;3.43;66.50;99798.45;107582;1251;107714;-60
2023/12/01 04:20:30;;;;;;;13.50;9.00;;;;;;;3.38;67.29;99799.17;107593;1253;99173;-61
2023/12/01 04:23:00;;;;;;;17.60;9.40;;;;;;;3.32;67.22;99803.71;107652;1253;99397;-61
2023/12/01 04:25:30;;;;;;;14.20;9.40;;;;;;;3.28;67.44;99803.13;107594;1251;113781;-61
2023/12/01 04:27:58;;;;;;;14.20;8.70;;;;;;;3.25;67.55;99794.11;107623;1252;108663;-60
2023/12/01 04:30:31;;;;;;;13.70;9.40;;;;;;;3.24;67.55;99794.56;107570;1253;107009;-61
2023/12/01 04:33:02;;;;;;;14.40;8.60;;;;;;;3.23;68.06;99789.45;107647;1253;99234;-59
2023/12/01 04:35:34;;;;;;;13.20;7.90;;;;;;;3.22;67.93;99788.28;107596;1251;99688;-61
2023/12/01 04:38:08;;;;;;;16.40;8.50;;;;;;;3.24;68.37;99787.62;107580;1255;112322;-62
2023/12/01 04:40:37;;;;;;;16.80;8.60;;;;;;;3.27;68.37;99782.39;107591;1253;110118;-62
2023/12/01 04:43:06;;;;;;;16.10;8.20;;;;;;;3.32;68.58;99781.89;107607;1253;107388;-60
2023/12/01 04:45:35;;;;;;;13.80;8.50;;;;;;;3.36;68.89;99784.84;107556;1251;99314;-61
2023/12/01 04:48:08;;;;;;;11.50;7.90;;;;;;;3.37;68.77;99785.77;107641;1251;99060;-61
2023/12/01 04:50:46;;;;;;;16.90;8.80;;;;;;;3.39;68.74;99784.71;107628;1251;112783;-61
2023/12/01 04:53:15;;;;;;;15.50;8.80;;;;;;;3.42;68.79;99775.48;107563;1254;110008;-61
2023/12/01 04:55:43;;;;;;;14.60;8.60;;;;;;;3.44;68.94;99772.30;107571;1255;108369;-62
2023/12/01 04:58:12;;;;;;;13.40;7.70;;;;;;;3.49;69.25;99765.95;107659;1254;99036;-60
2023/12/01 05:00:41;;;;;;;11.80;8.00;;;;;;;3.54;68.87;99764.00;107517;1253;99092;-60
2023/12/01 05:03:10;;;;;;;17.80;8.40;;;;;;;3.55;68.88;99761.36;107655;1251;112275;-60
2023/12/01 05:05:41;;;;;;;12.70;8.20;;;;;;;3.60;68.92;99765.99;107590;1251;110525;-59
2023/12/01 05:08:10;;;;;;;12.60;7.90;;;;;;;3.61;68.92;99759.71;107578;1252;108351;-60
2023/12/01 05:10:44;;;;;;;13.30;7.60;;;;;;;3.60;68.83;99765.12;107637;1253;99182;-60
2023/12/01 05:13:14;;;;;;;13.60;8.30;;;;;;;3.57;68.52;99771.02;107559;1257;99733;-61
2023/12/01 05:15:43;;;;;;;12.10;7.90;;;;;;;3.52;68.68;99767.64;107681;1253;112604;-61
2023/12/01 05:18:12;;;;;;;15.00;8.30;;;;;;;3.49;68.55;99765.77;107605;1251;110844;-61
2023/12/01 05:20:41;;;;;;;12.60;8.30;;;;;;;3.46;68.34;99762.42;107335;1253;108514;-61
2023/12/01 05:23:09;;;;;;;19.30;8.80;;;;;;;3.40;68.33;99767.47;107566;1251;99176;-60
2023/12/01 05:25:41;;;;;;;13.80;8.80;;;;;;;3.31;68.22;99765.83;107667;1251;99197;-60
2023/12/01 05:28:11;;;;;;;15.00;8.50;;;;;;;3.24;68.18;99765.09;107635;1252;112528;-61
2023/12/01 05:30:45;;;;;;;21.00;10.00;;;;;;;3.18;68.33;99768.55;107615;1251;110061;-64
2023/12/01 05:33:14;;;;;;;15.00;8.70;;;;;;;3.13;68.33;99767.68;107595;1253;108635;-62
2023/12/01 05:35:43;;;;;;;15.00;8.60;;;;;;;3.07;68.20;99767.95;107610;1251;99169;-60
2023/12/01 05:38:12;;;;;;;15.60;9.90;;;;;;;3.04;68.28;99763.02;107570;1251;99060;-62
2023/12/01 05:40:40;;;;;;;19.70;12.00;;;;;;;3.01;68.37;99762.17;107644;1253;113148;-62
2023/12/01 05:43:09;;;;;;;20.00;12.30;;;;;;;2.97;68.33;99764.05;107667;1253;109282;-61
2023/12/01 05:45:37;;;;;;;18.20;11.20;;;;;;;2.93;68.46;99755.50;107591;1251;108138;-61
2023/12/01 05:48:07;;;;;;;13.60;9.20;;;;;;;2.90;68.49;99753.80;107623;1251;100685;-61
2023/12/01 05:50:38;;;;;;;13.70;9.00;;;;;;;2.87;68.57;99757.37;107639;1251;99060;-60
2023/12/01 05:53:07;;;;;;;13.20;8.20;;;;;;;2.84;68.65;99759.36;107670;1251;113644;-59
2023/12/01 05:55:36;;;;;;;17.90;8.70;;;;;;;2.80;68.52;99769.69;107654;1251;109663;-61
2023/12/01 05:58:12;;;;;;;17.70;8.90;;;;;;;2.77;68.70;99772.80;107535;1253;108484;-61
2023/12/01 06:00:41;;;;;;;16.20;9.50;;;;;;;2.75;68.53;99775.24;107664;1251;99170;-60
2023/12/01 06:03:11;;;;;;;13.70;8.60;;;;;;;2.73;68.50;99773.04;107521;1252;99112;-62
2023/12/01 06:05:40;;;;;;;14.30;8.50;;;;;;;2.72;68.80;99770.48;107673;1251;112895;-60
2023/12/01 06:08:09;;;;;;;13.60;8.40;;;;;;;2.73;68.73;99775.38;107553;1251;109718;-61
2023/12/01 06:10:39;;;;;;;12.70;8.40;;;;;;;2.73;68.94;99764.52;107580;1253;108515;-60
2023/12/01 06:13:07;;;;;;;14.80;8.20;;;;;;;2.74;68.94;99756.55;107598;1252;99177;-59
2023/12/01 06:15:36;;;;;;;17.80;9.50;;;;;;;2.77;68.83;99756.14;107492;1257;99160;-62
2023/12/01 06:18:04;;;;;;;19.80;9.90;;;;;;;2.82;69.22;99767.26;107595;1253;113509;-61
2023/12/01 06:20:34;;;;;;;14.60;8.90;;;;;;;2.89;69.53;99772.61;107580;1251;108296;-61
2023/12/01 06:23:07;;;;;;;18.50;9.10;;;;;;;2.95;69.60;99768.27;107657;1253;108175;-60
2023/12/01 06:25:38;;;;;;;16.00;9.70;;;;;;;3.03;69.91;99775.72;107582;1253;99259;-60
2023/12/01 06:28:08;;;;;;;14.80;8.10;;;;;;;3.09;70.14;99769.36;107640;1253;99166;-61
2023/12/01 06:30:38;;;;;;;23.20;8.50;;;;;;;3.19;70.32;99779.67;107613;1253;113307;-62
2023/12/01 06:33:07;;;;;;;17.80;8.20;;;;;;;3.29;70.45;99789.40;107571;1252;109724;-60
2023/12/01 06:35:37;;;;;;;15.90;7.70;;;;;;;3.37;70.97;99795.90;107579;1253;108862;-60
2023/12/01 06:38:07;;;;;;;12.00;7.20;;;;;;;3.45;70.96;99804.52;107588;1253;99919;-62
2023/12/01 06:40:36;;;;;;;16.00;7.70;;;;;;;3.56;70.83;99805.68;107621;1253;99130;-62
2023/12/01 06:43:09;;;;;;;13.20;7.50;;;;;;;3.70;70.98;99800.54;107596;1252;112421;-60
2023/12/01 06:45:41;;;;;;;11.80;7.30;;;;;;;3.86;71.07;99806.63;107551;1252;108857;-62
2023/12/01 06:48:12;;;;;;;21.30;8.10;;;;;;;3.96;71.16;99807.59;107604;1251;107488;-60
2023/12/01 06:50:42;;;;;;;22.80;11.50;;;;;;;4.07;70.72;99808.75;107579;1253;99186;-62
2023/12/01 06:53:10;;;;;;;20.70;10.80;;;;;;;4.16;70.84;99809.67;107616;1251;99173;-61
2023/12/01 06:55:40;;;;;;;19.80;11.00;;;;;;;4.24;70.77;99811.66;107512;1252;112097;-61
2023/12/01 06:58:09;;;;;;;21.40;12.40;;;;;;;4.36;70.78;99803.16;107589;1255;109678;-61
2023/12/01 07:00:39;;;;;;;71.80;30.90;;;;;;;4.46;70.65;99805.39;107583;1250;107879;-60
2023/12/01 07:03:09;;;;;;;49.80;22.10;;;;;;;4.54;70.59;99799.77;107560;1255;99066;-62
2023/12/01 07:05:40;;;;;;;42.00;17.30;;;;;;;4.65;70.56;99800.48;107593;1253;99708;-61
2023/12/01 07:08:14;;;;;;;31.30;16.70;;;;;;;4.77;70.06;99803.67;107604;1253;111987;-61
2023/12/01 07:10:44;;;;;;;37.00;19.10;;;;;;;4.88;69.99;99804.05;107640;1252;108545;-61
2023/12/01 07:13:13;;;;;;;54.00;25.60;;;;;;;5.04;70.02;99798.64;107575;1252;107707;-61
2023/12/01 07:15:42;;;;;;;92.20;42.10;;;;;;;5.22;70.06;99800.61;107566;1253;99850;-61
2023/12/01 07:18:11;;;;;;;90.10;43.00;;;;;;;5.37;69.90;99803.25;107528;1252;100316;-62
2023/12/01 07:20:39;;;;;;;73.80;34.40;;;;;;;5.51;69.64;99807.45;107638;1253;112393;-61
2023/12/01 07:23:08;;;;;;;50.10;24.00;;;;;;;5.66;69.40;99803.41;107618;1254;108268;-61
2023/12/01 07:25:36;;;;;;;48.30;21.50;;;;;;;5.79;69.18;99816.01;107568;1252;108394;-61
2023/12/01 07:28:06;;;;;;;33.40;17.00;;;;;;;5.86;68.90;99823.80;107610;1253;99189;-60
2023/12/01 07:30:36;;;;;;;32.60;16.60;;;;;;;5.91;68.20;99821.56;107651;1252;99229;-62
2023/12/01 07:33:04;;;;;;;30.10;15.90;;;;;;;5.95;68.10;99837.27;107642;1251;113055;-61
2023/12/01 07:35:34;;;;;;;31.90;15.30;;;;;;;6.00;67.91;99822.48;107633;1251;109267;-60
2023/12/01 07:38:04;;;;;;;26.80;13.90;;;;;;;6.05;67.94;99818.50;107562;1253;108607;-61
2023/12/01 07:40:33;;;;;;;27.60;14.60;;;;;;;6.11;67.74;99825.44;107570;1255;99187;-60
2023/12/01 07:43:03;;;;;;;23.80;14.80;;;;;;;6.18;67.71;99827.38;107579;1253;99237;-61
2023/12/01 07:45:34;;;;;;;26.40;14.50;;;;;;;6.26;67.86;99827.40;107680;1251;112564;-61
2023/12/01 07:48:04;;;;;;;27.40;13.60;;;;;;;6.35;67.43;99820.02;107624;1252;109047;-63
2023/12/01 07:50:33;;;;;;;27.50;14.10;;;;;;;6.46;67.38;99811.25;107636;1253;108235;-63
2023/12/01 07:53:04;;;;;;;23.70;12.90;;;;;;;6.55;67.17;99812.05;107593;1251;99077;-62
2023/12/01 07:55:33;;;;;;;21.80;12.60;;;;;;;6.69;67.27;99806.26;107600;1251;99088;-60
2023/12/01 07:58:01;;;;;;;21.80;13.90;;;;;;;6.84;66.99;99809.02;107639;1251;112793;-61
2023/12/01 08:00:30;;;;;;;24.60;13.60;;;;;;;7.00;66.89;99804.78;107588;1253;110105;-62
2023/12/01 08:02:58;;;;;;;25.50;13.60;;;;;;;7.16;66.85;99808.73;107545;1251;108167;-62
2023/12/01 08:05:27;;;;;;;25.10;12.80;;;;;;;7.31;66.53;99805.23;107508;1256;99064;-61
2023/12/01 08:07:56;;;;;;;27.80;13.20;;;;;;;7.48;66.35;99795.88;107636;1251;99185;-60
2023/12/01 08:10:27;;;;;;;28.00;13.30;;;;;;;7.65;66.24;99799.08;107613;1252;113395;-61
2023/12/01 08:12:59;;;;;;;24.20;11.30;;;;;;;7.77;66.03;99783.20;107642;1251;109843;-61
2023/12/01 08:15:30;;;;;;;25.10;12.40;;;;;;;7.90;65.79;99789.55;107600;1253;108677;-61
2023/12/01 08:18:00;;;;;;;21.10;10.80;;;;;;;7.98;65.41;99789.44;107573;1255;99293;-61
2023/12/01 08:20:30;;;;;;;18.00;9.90;;;;;;;8.03;64.94;99785.58;107625;1253;99067;-61
2023/12/01 08:22:59;;;;;;;17.80;9.20;;;;;;;8.12;64.25;99791.92;107633;1252;113204;-61
2023/12/01 08:25:30;;;;;;;20.70;10.60;;;;;;;8.18;64.38;99802.40;107580;1253;109949;-62
2023/12/01 08:27:59;;;;;;;17.70;8.90;;;;;;;8.28;64.42;99800.03;107593;1251;107204;-62
2023/12/01 08:30:28;;;;;;;24.50;10.30;;;;;;;8.44;64.13;99806.05;107590;1253;100312;-62
2023/12/01 08:32:57;;;;;;;18.30;9.00;;;;;;;8.65;63.78;99807.17;107563;1253;99847;-60
2023/12/01 08:35:26;;;;;;;17.20;8.60;;;;;;;8.77;63.43;99808.15;107610;1254;112642;-62
2023/12/01 08:37:55;;;;;;;14.30;9.30;;;;;;;8.85;63.44;99811.67;107580;1253;109990;-61
2023/12/01 08:40:24;;;;;;;15.60;8.60;;;;;;;8.91;63.35;99818.63;107545;1253;106793;-59
2023/12/01 08:42:56;;;;;;;17.00;9.00;;;;;;;8.99;62.89;99830.23;107588;1251;99310;-60
2023/12/01 08:45:24;;;;;;;18.80;8.90;;;;;;;9.02;63.08;99830.65;107517;1253;99758;-60
2023/12/01 08:47:53;;;;;;;19.80;9.30;;;;;;;9.03;62.91;99833.38;107649;1251;112166;-61
2023/12/01 08:50:22;;;;;;;20.40;9.60;;;;;;;9.03;62.95;99832.48;107514;1253;108609;-62
2023/12/01 08:52:51;;;;;;;27.10;10.00;;;;;;;9.10;62.71;99826.10;107574;1253;108474;-61
2023/12/01 08:55:20;;;;;;;16.50;8.90;;;;;;;9.16;62.56;99816.79;107588;1252;99077;-65
2023/12/01 08:57:48;;;;;;;32.00;9.30;;;;;;;9.24;62.45;99824.89;107600;1254;99879;-62
2023/12/01 09:00:20;;;;;;;18.30;9.00;;;;;;;9.39;62.07;99828.45;107639;1255;113632;-61
2023/12/01 09:02:52;;;;;;;25.90;9.50;;;;;;;9.52;61.53;99830.94;107584;1253;110108;-61
2023/12/01 09:05:22;;;;;;;15.90;9.10;;;;;;;9.54;61.46;99817.86;107614;1252;107550;-60
2023/12/01 09:07:50;;;;;;;13.70;9.70;;;;;;;9.55;61.69;99811.33;107452;1252;99166;-62
2023/12/01 09:10:22;;;;;;;17.70;10.10;;;;;;;9.59;61.75;99798.04;107579;1253;99187;-61
2023/12/01 09:12:52;;;;;;;24.80;9.70;;;;;;;9.67;61.74;99792.38;107641;1251;111708;-62
2023/12/01 09:15:20;;;;;;;24.10;9.50;;;;;;;9.76;61.70;99794.52;107608;1250;109166;-62
2023/12/01 09:17:51;;;;;;;25.30;11.10;;;;;;;9.85;61.65;99797.72;107619;1251;108229;-61
2023/12/01 09:20:20;;;;;;;20.30;10.10;;;;;;;9.92;61.29;99795.29;107617;1252;99200;-61
2023/12/01 09:22:49;;;;;;;20.00;10.10;;;;;;;9.91;61.13;99794.84;107573;1252;99013;-59
2023/12/01 09:25:17;;;;;;;17.30;9.70;;;;;;;9.90;60.82;99795.14;107592;1252;112934;-60
2023/12/01 09:27:47;;;;;;;17.40;9.10;;;;;;;9.86;60.82;99790.44;107608;1253;110620;-58
2023/12/01 09:30:16;;;;;;;20.20;9.20;;;;;;;9.85;60.81;99797.90;107562;1251;108409;-61
2023/12/01 09:32:46;;;;;;;17.30;9.50;;;;;;;9.83;60.70;99800.05;107579;1251;99176;-60
2023/12/01 09:35:15;;;;;;;22.10;9.80;;;;;;;9.79;60.36;99791.76;107608;1253;99105;-61
2023/12/01 09:38:05;;;;;;;17.20;9.00;;;;;;;9.75;60.44;99786.98;107540;1253;113042;-61
2023/12/01 09:40:39;;;;;;;25.00;8.90;;;;;;;9.72;60.54;99784.92;107532;1253;109054;-60
2023/12/01 09:43:12;;;;;;;17.80;8.40;;;;;;;9.73;60.60;99780.36;107527;1253;108386;-60
2023/12/01 09:45:40;;;;;;;23.10;8.40;;;;;;;9.74;59.97;99785.31;107525;1252;99167;-60
2023/12/01 09:48:13;;;;;;;26.20;8.60;;;;;;;9.67;60.03;99775.21;107619;1254;99710;-60
2023/12/01 09:50:44;;;;;;;14.60;8.70;;;;;;;9.62;60.55;99776.58;107657;1253;112964;-60
2023/12/01 09:53:14;;;;;;;15.80;8.10;;;;;;;9.62;60.80;99768.02;107493;1256;109637;-62
2023/12/01 09:55:43;;;;;;;25.50;11.50;;;;;;;9.63;60.65;99754.31;107593;1255;107834;-60
2023/12/01 09:58:14;;;;;;;20.50;10.40;;;;;;;9.63;60.62;99749.84;107548;1253;99186;-60
2023/12/01 10:00:46;;;;;;;22.80;10.20;;;;;;;9.66;60.62;99748.25;107672;1251;99063;-62
2023/12/01 10:03:14;;;;;;;25.20;10.40;;;;;;;9.66;60.49;99751.81;107650;1252;112768;-61
2023/12/01 10:05:43;;;;;;;24.50;10.60;;;;;;;9.65;60.61;99756.40;107560;1251;110392;-61
2023/12/01 10:08:11;;;;;;;24.00;10.50;;;;;;;9.67;60.46;99751.78;107533;1253;108380;-62
2023/12/01 10:10:40;;;;;;;24.40;10.20;;;;;;;9.66;60.55;99755.77;107532;1253;99085;-60
2023/12/01 10:13:09;;;;;;;17.40;9.50;;;;;;;9.64;60.33;99752.73;107240;1253;434807;-62
2023/12/01 10:15:40;;;;;;;17.90;10.20;;;;;;;9.58;60.08;99764.84;107537;1253;113486;-65
2023/12/01 10:18:13;;;;;;;21.70;9.60;;;;;;;9.50;60.22;99762.35;107518;1253;109528;-61
2023/12/01 10:21:13;;;;;;;21.90;10.00;;;;;;;9.46;60.57;99765.08;107529;1255;108412;-61
2023/12/01 10:23:42;;;;;;;31.80;10.90;;;;;;;9.43;60.75;99767.59;107592;1253;99164;-61
2023/12/01 10:26:13;;;;;;;17.10;10.00;;;;;;;9.40;60.39;99759.05;107624;1251;100205;-62
2023/12/01 10:28:43;;;;;;;25.30;10.90;;;;;;;9.35;60.52;99757.81;107552;1253;112961;-64
2023/12/01 10:31:15;;;;;;;22.00;12.10;;;;;;;9.32;60.78;99751.68;107602;1251;108701;-62
2023/12/01 10:33:47;;;;;;;21.10;11.30;;;;;;;9.28;60.94;99758.98;107548;1253;108041;-61
2023/12/01 10:36:19;;;;;;;22.20;10.80;;;;;;;9.26;60.95;99749.54;107575;1252;99176;-61
2023/12/01 10:38:48;;;;;;;22.50;12.40;;;;;;;9.23;60.92;99755.62;107549;1253;99101;-60
2023/12/01 10:41:18;;;;;;;25.60;12.30;;;;;;;9.18;60.87;99761.05;107603;1251;112148;-61
2023/12/01 10:43:48;;;;;;;23.30;11.70;;;;;;;9.13;60.86;99757.29;107538;1252;109080;-60
2023/12/01 10:46:18;;;;;;;27.10;10.60;;;;;;;9.07;61.15;99772.20;107630;1251;108616;-61
2023/12/01 10:48:49;;;;;;;19.90;10.70;;;;;;;9.04;61.38;99757.44;107548;1256;99271;-61
2023/12/01 10:51:19;;;;;;;19.10;11.30;;;;;;;9.01;61.37;99754.55;107582;1253;99725;-62
2023/12/01 10:53:48;;;;;;;22.70;11.00;;;;;;;8.99;61.52;99758.98;107629;1253;112700;-60
2023/12/01 10:56:20;;;;;;;22.90;10.30;;;;;;;8.97;61.62;99762.20;107565;1253;110022;-61
2023/12/01 10:58:53;;;;;;;22.80;10.40;;;;;;;8.95;61.96;99760.80;107629;1255;106873;-60
2023/12/01 11:01:24;;;;;;;16.90;10.90;;;;;;;8.89;62.09;99757.79;107561;1255;99189;-62
2023/12/01 11:03:55;;;;;;;24.10;10.50;;;;;;;8.85;62.31;99761.11;107662;1251;99172;-61
2023/12/01 11:06:41;;;;;;;21.00;10.00;;;;;;;8.82;62.31;99764.30;107528;1253;113067;-61
2023/12/01 11:09:24;;;;;;;24.40;10.30;;;;;;;8.79;62.39;99764.20;107558;1253;109299;-61
2023/12/01 11:12:02;;;;;;;;;;;;;;;8.74;62.53;99773.95;107606;1253;107595;-61
2023/12/01 11:14:33;;;;;;;27.30;9.80;;;;;;;8.69;62.93;99764.05;107547;1253;99201;-62
2023/12/01 11:17:04;;;;;;;36.90;18.10;;;;;;;8.67;63.22;99757.46;107608;1255;99123;-61
2023/12/01 11:19:39;;;;;;;35.60;17.20;;;;;;;8.67;63.32;99772.33;107618;1251;113312;-61
2023/12/01 11:22:27;;;;;;;29.70;14.40;;;;;;;8.68;63.71;99770.04;107627;1253;108831;-63
2023/12/01 11:24:56;;;;;;;23.70;12.00;;;;;;;8.70;64.26;99779.64;107532;1256;108827;-60
2023/12/01 11:27:26;;;;;;;17.50;9.50;;;;;;;8.73;64.45;99780.09;107562;1251;99036;-63